Time;durP1;ratioP1;P1;durP2;ratioP2;P2;SDS_P1;SDS_P2;PMS_P1;PMS_P2;Temp;Humidity;BMP_temperature;BMP_pressure;BME280_temperature;BME280_humidity;BME280_pressure;Samples;Min_cycle;Max_cycle;Signal;HPM_P1;HPM_P2
2021/03/03 00:01:52;;;;;;;13.68;8.85;;;7.30;86.60;;;;;;5071923;28;20090;-89
2021/03/03 00:04:18;;;;;;;14.15;7.72;;;7.30;86.70;;;;;;5061792;28;20404;-90
2021/03/03 00:06:43;;;;;;;15.52;9.00;;;7.30;86.80;;;;;;5068422;28;20009;-90
2021/03/03 00:09:08;;;;;;;12.02;7.90;;;7.30;86.90;;;;;;5069493;28;20438;-89
2021/03/03 00:11:34;;;;;;;15.50;7.70;;;7.30;87.00;;;;;;5061189;28;20109;-89
2021/03/03 00:14:00;;;;;;;12.20;6.90;;;7.20;87.00;;;;;;5061850;28;20020;-89
2021/03/03 00:16:25;;;;;;;13.73;8.45;;;7.30;87.30;;;;;;5064602;28;20041;-88
2021/03/03 00:18:51;;;;;;;18.60;10.20;;;7.20;87.40;;;;;;5068619;28;20056;-88
2021/03/03 00:21:16;;;;;;;19.10;11.98;;;7.20;87.50;;;;;;5064515;28;20082;-88
2021/03/03 00:23:42;;;;;;;21.80;13.32;;;7.20;87.60;;;;;;5067418;28;20055;-88
2021/03/03 00:26:07;;;;;;;20.63;11.50;;;7.20;87.70;;;;;;5064589;28;20020;-88
2021/03/03 00:28:33;;;;;;;19.27;11.57;;;7.30;87.60;;;;;;5059141;28;20017;-88
2021/03/03 00:30:58;;;;;;;19.48;12.10;;;7.30;87.60;;;;;;5073232;28;20523;-89
2021/03/03 00:33:24;;;;;;;25.30;14.57;;;7.30;87.80;;;;;;5076967;28;20020;-88
2021/03/03 00:35:49;;;;;;;21.17;13.13;;;7.30;87.90;;;;;;5076573;28;20020;-88
2021/03/03 00:38:15;;;;;;;22.65;13.57;;;7.30;88.00;;;;;;5067048;28;20032;-89
2021/03/03 00:40:40;;;;;;;16.23;11.20;;;7.30;87.90;;;;;;5067237;28;20048;-89
2021/03/03 00:43:06;;;;;;;18.13;9.93;;;7.30;88.00;;;;;;5076898;28;20039;-89
2021/03/03 00:45:31;;;;;;;18.90;11.20;;;7.20;88.20;;;;;;5075666;28;20522;-90
2021/03/03 00:47:57;;;;;;;18.33;10.32;;;7.10;88.60;;;;;;5066681;28;20025;-89
2021/03/03 00:50:23;;;;;;;17.10;10.05;;;7.00;88.80;;;;;;5064967;28;20025;-89
2021/03/03 00:52:48;;;;;;;17.00;10.10;;;7.10;88.90;;;;;;5072507;28;20023;-89
2021/03/03 00:55:14;;;;;;;14.93;9.02;;;7.10;88.90;;;;;;5068395;28;20384;-90
2021/03/03 00:57:40;;;;;;;17.00;9.80;;;7.10;88.70;;;;;;5066965;28;20385;-89
2021/03/03 01:00:07;;;;;;;15.05;8.93;;;7.10;88.70;;;;;;5066971;28;20543;-89
2021/03/03 01:02:33;;;;;;;14.80;9.00;;;7.10;88.60;;;;;;5060479;28;20028;-88
2021/03/03 01:04:58;;;;;;;17.73;9.95;;;7.10;88.70;;;;;;5064255;28;20021;-89
2021/03/03 01:07:24;;;;;;;14.82;9.40;;;7.10;88.90;;;;;;5060939;28;20029;-90
2021/03/03 01:09:49;;;;;;;13.93;9.13;;;7.10;88.90;;;;;;5066657;28;20158;-88
2021/03/03 01:12:15;;;;;;;15.75;9.18;;;7.10;88.90;;;;;;5066854;28;20027;-88
2021/03/03 01:14:40;;;;;;;17.85;9.85;;;7.10;89.00;;;;;;5068424;28;20017;-88
2021/03/03 01:17:06;;;;;;;16.90;9.63;;;7.00;89.10;;;;;;5065434;28;20032;-89
2021/03/03 01:19:31;;;;;;;18.80;10.65;;;7.00;89.20;;;;;;5064738;28;20032;-88
2021/03/03 01:21:57;;;;;;;20.65;12.60;;;7.00;89.20;;;;;;5076121;28;20024;-89
2021/03/03 01:24:22;;;;;;;17.98;11.52;;;7.00;89.20;;;;;;5077059;28;20385;-88
2021/03/03 01:26:48;;;;;;;23.52;13.45;;;7.00;89.40;;;;;;5071029;28;20410;-89
2021/03/03 01:29:14;;;;;;;24.10;13.88;;;6.90;89.50;;;;;;5063436;28;20024;-89
2021/03/03 01:31:39;;;;;;;19.65;12.05;;;6.80;89.70;;;;;;5062919;28;20024;-89
2021/03/03 01:34:05;;;;;;;18.90;10.95;;;6.70;90.00;;;;;;5068993;28;20013;-89
2021/03/03 01:36:30;;;;;;;19.48;10.73;;;6.60;90.10;;;;;;5062366;28;20036;-88
2021/03/03 01:38:56;;;;;;;17.48;10.65;;;6.60;90.10;;;;;;5063363;28;20023;-88
2021/03/03 01:41:21;;;;;;;19.73;11.65;;;6.60;90.10;;;;;;5058719;28;20050;-90
2021/03/03 01:43:47;;;;;;;14.23;8.85;;;6.60;90.20;;;;;;5070703;28;20052;-90
2021/03/03 01:46:12;;;;;;;14.63;9.15;;;6.60;90.20;;;;;;5068584;28;20108;-89
2021/03/03 01:48:38;;;;;;;16.52;9.50;;;6.70;90.20;;;;;;5063299;28;20064;-90
2021/03/03 01:51:04;;;;;;;15.05;9.98;;;6.70;90.20;;;;;;5062250;28;20536;-89
2021/03/03 01:53:30;;;;;;;15.55;9.30;;;6.70;90.20;;;;;;5071641;28;20376;-89
2021/03/03 01:55:55;;;;;;;18.08;9.23;;;6.70;90.20;;;;;;5072437;28;20122;-89
2021/03/03 01:58:21;;;;;;;20.10;11.32;;;6.70;90.20;;;;;;5073298;28;20115;-88
2021/03/03 02:00:48;;;;;;;17.33;10.18;;;6.70;90.20;;;;;;5068047;28;20029;-89
2021/03/03 02:03:14;;;;;;;19.25;11.20;;;6.70;90.20;;;;;;5068895;28;20100;-89
2021/03/03 02:05:40;;;;;;;19.00;10.13;;;6.70;90.30;;;;;;5068717;28;20099;-88
2021/03/03 02:08:23;;;;;;;25.35;12.75;;;6.70;90.30;;;;;;5068229;28;20392;-90
2021/03/03 02:10:51;;;;;;;33.33;16.27;;;6.80;90.40;;;;;;5067630;28;20049;-88
2021/03/03 02:13:22;;;;;;;26.88;14.88;;;6.70;90.60;;;;;;5068802;28;20108;-88
2021/03/03 02:15:49;;;;;;;26.05;14.55;;;6.70;90.70;;;;;;5071408;28;20016;-88
2021/03/03 02:18:16;;;;;;;21.65;13.05;;;6.70;90.70;;;;;;5067748;28;20024;-88
2021/03/03 02:21:01;;;;;;;20.45;12.00;;;6.60;90.70;;;;;;5065669;28;20020;-88
2021/03/03 02:24:05;;;;;;;21.70;13.25;;;6.60;90.90;;;;;;5067566;28;20413;-88
2021/03/03 02:26:33;;;;;;;30.08;16.60;;;6.50;90.90;;;;;;5060079;28;20094;-89
2021/03/03 02:29:23;;;;;;;30.13;16.73;;;6.50;91.40;;;;;;5059188;28;20464;-88
2021/03/03 02:31:50;;;;;;;33.25;16.75;;;6.50;91.50;;;;;;5062572;28;20021;-89
2021/03/03 02:34:17;;;;;;;27.38;16.88;;;6.50;91.80;;;;;;5060609;28;20029;-89
2021/03/03 02:36:44;;;;;;;25.50;14.20;;;6.50;91.80;;;;;;5066048;28;20032;-88
2021/03/03 02:39:11;;;;;;;25.52;14.90;;;6.50;91.70;;;;;;5058648;28;20043;-88
2021/03/03 02:41:37;;;;;;;28.67;16.58;;;6.50;91.70;;;;;;5067022;28;20035;-89
2021/03/03 02:44:05;;;;;;;25.33;13.73;;;6.50;91.70;;;;;;5065422;28;20031;-88
2021/03/03 02:46:33;;;;;;;22.92;13.70;;;6.60;91.80;;;;;;5063854;28;20032;-88
2021/03/03 02:49:00;;;;;;;22.58;12.50;;;6.50;91.70;;;;;;5069257;28;20028;-89
2021/03/03 02:51:26;;;;;;;17.90;10.82;;;6.50;91.80;;;;;;5068576;28;20028;-89
2021/03/03 02:53:51;;;;;;;16.58;10.32;;;6.60;91.80;;;;;;5062297;28;20491;-89
2021/03/03 02:56:17;;;;;;;19.27;10.38;;;6.50;91.70;;;;;;5068518;28;20519;-89
2021/03/03 02:58:44;;;;;;;15.68;10.07;;;6.60;91.80;;;;;;5062583;28;20029;-89
2021/03/03 03:01:14;;;;;;;21.13;10.82;;;6.60;91.80;;;;;;5064458;28;20021;-89
2021/03/03 03:03:50;;;;;;;20.27;10.80;;;6.60;91.80;;;;;;5062483;28;20098;-89
2021/03/03 03:06:20;;;;;;;19.13;11.43;;;6.60;91.70;;;;;;5067930;28;20029;-88
2021/03/03 03:08:47;;;;;;;17.85;9.95;;;6.60;91.70;;;;;;5065240;28;20028;-89
2021/03/03 03:11:18;;;;;;;20.42;11.40;;;6.60;91.70;;;;;;5064656;28;20029;-89
2021/03/03 03:13:46;;;;;;;19.05;9.70;;;6.70;91.70;;;;;;5060071;28;20575;-89
2021/03/03 03:16:11;;;;;;;15.00;9.30;;;6.70;91.70;;;;;;5064810;28;20111;-89
2021/03/03 03:18:50;;;;;;;16.98;9.38;;;6.70;91.70;;;;;;5067275;28;20116;-88
2021/03/03 03:21:16;;;;;;;15.63;9.55;;;6.70;91.70;;;;;;5058713;28;20472;-89
2021/03/03 03:23:44;;;;;;;15.88;9.10;;;6.70;91.70;;;;;;5059859;28;20025;-89
2021/03/03 03:26:11;;;;;;;13.90;8.50;;;6.60;91.70;;;;;;5062897;28;20024;-89
2021/03/03 03:28:38;;;;;;;15.48;8.80;;;6.60;91.80;;;;;;5064535;28;20032;-89
2021/03/03 03:31:06;;;;;;;14.93;10.00;;;6.60;91.80;;;;;;5068358;28;20027;-89
2021/03/03 03:33:32;;;;;;;15.18;9.18;;;6.60;91.80;;;;;;5064680;28;20476;-89
2021/03/03 03:35:59;;;;;;;15.02;9.32;;;6.60;91.80;;;;;;5057411;28;20497;-89
2021/03/03 03:38:27;;;;;;;16.95;9.82;;;6.60;91.90;;;;;;5070131;28;20024;-89
2021/03/03 03:40:53;;;;;;;17.73;11.10;;;6.50;91.90;;;;;;5069672;28;20032;-88
2021/03/03 03:43:19;;;;;;;15.50;9.38;;;6.40;91.90;;;;;;5064941;28;20020;-89
2021/03/03 03:45:48;;;;;;;15.43;9.77;;;6.40;92.00;;;;;;5063902;28;20017;-90
2021/03/03 03:48:14;;;;;;;17.33;10.02;;;6.30;92.00;;;;;;5066936;28;20060;-89
2021/03/03 03:50:40;;;;;;;18.45;10.60;;;6.30;92.10;;;;;;5060747;28;20077;-89
2021/03/03 03:53:06;;;;;;;18.05;11.05;;;6.30;92.20;;;;;;5060715;28;20553;-88
2021/03/03 03:55:38;;;;;;;17.02;9.80;;;6.30;92.20;;;;;;5058291;28;20021;-89
2021/03/03 03:58:05;;;;;;;18.10;10.18;;;6.20;92.30;;;;;;5065056;28;20033;-89
2021/03/03 04:00:32;;;;;;;17.88;9.90;;;6.30;92.30;;;;;;5070282;28;20021;-89
2021/03/03 04:02:58;;;;;;;15.68;9.98;;;6.30;92.30;;;;;;5096238;28;20473;-88
2021/03/03 04:05:25;;;;;;;15.68;9.80;;;6.30;92.20;;;;;;5065917;28;20056;-89
2021/03/03 04:07:51;;;;;;;17.75;9.38;;;6.30;92.20;;;;;;5074923;28;20115;-89
2021/03/03 04:10:19;;;;;;;16.70;9.80;;;6.20;92.20;;;;;;5076093;28;20072;-89
2021/03/03 04:12:45;;;;;;;12.65;9.13;;;6.20;92.30;;;;;;5065893;28;20108;-88
2021/03/03 04:15:12;;;;;;;15.07;9.27;;;6.10;92.40;;;;;;5064962;28;20157;-88
2021/03/03 04:17:39;;;;;;;17.05;8.88;;;6.10;92.50;;;;;;5097956;28;20025;-89
2021/03/03 04:20:06;;;;;;;16.15;10.30;;;6.00;92.50;;;;;;5066326;28;20082;-88
2021/03/03 04:22:32;;;;;;;16.17;9.40;;;6.00;92.60;;;;;;5067003;28;20029;-88
2021/03/03 04:24:59;;;;;;;21.75;11.38;;;6.00;92.80;;;;;;5097671;28;20090;-89
2021/03/03 04:27:24;;;;;;;21.58;11.65;;;5.90;92.50;;;;;;5068259;28;20028;-89
2021/03/03 04:29:50;;;;;;;20.17;12.52;;;5.90;92.60;;;;;;5066424;28;20014;-88
2021/03/03 04:32:15;;;;;;;19.60;11.90;;;5.90;92.60;;;;;;5064688;28;20048;-88
2021/03/03 04:34:41;;;;;;;18.80;11.35;;;5.90;92.70;;;;;;5068786;28;20094;-88
2021/03/03 04:37:06;;;;;;;19.75;10.65;;;5.80;92.70;;;;;;5069168;28;20025;-89
2021/03/03 04:39:32;;;;;;;19.42;10.38;;;5.80;92.70;;;;;;5075870;28;20025;-89
2021/03/03 04:41:57;;;;;;;17.75;10.57;;;5.80;92.70;;;;;;5064268;28;20032;-88
2021/03/03 04:44:23;;;;;;;17.52;10.65;;;5.90;92.80;;;;;;5069854;28;20013;-88
2021/03/03 04:46:48;;;;;;;21.45;11.32;;;5.90;92.80;;;;;;5062182;28;20545;-89
2021/03/03 04:49:14;;;;;;;18.33;10.23;;;6.00;92.80;;;;;;5069705;28;20035;-89
2021/03/03 04:51:39;;;;;;;15.60;9.80;;;5.90;92.80;;;;;;5063252;28;20138;-89
2021/03/03 04:54:05;;;;;;;18.40;9.68;;;6.00;92.80;;;;;;5070062;28;20075;-90
2021/03/03 04:56:31;;;;;;;21.33;10.90;;;6.00;92.90;;;;;;5067536;28;20045;-89
2021/03/03 04:58:56;;;;;;;17.75;9.60;;;6.00;92.80;;;;;;5065575;28;20021;-89
2021/03/03 05:01:22;;;;;;;18.23;10.27;;;6.00;92.80;;;;;;5073186;28;20017;-89
2021/03/03 05:03:47;;;;;;;17.20;9.98;;;6.00;92.80;;;;;;5066668;28;20388;-89
2021/03/03 05:06:13;;;;;;;19.30;11.13;;;6.00;92.80;;;;;;5078832;28;20087;-88
2021/03/03 05:08:38;;;;;;;19.40;11.43;;;6.00;92.80;;;;;;5068103;28;20028;-88
2021/03/03 05:11:04;;;;;;;20.00;11.13;;;5.90;92.80;;;;;;5065017;28;20021;-89
2021/03/03 05:13:31;;;;;;;18.20;10.43;;;5.90;93.00;;;;;;5066967;28;20023;-89
2021/03/03 05:15:58;;;;;;;15.82;10.27;;;5.80;93.00;;;;;;5060556;28;20108;-88
2021/03/03 05:18:24;;;;;;;18.42;9.63;;;5.80;93.10;;;;;;5064560;28;20028;-89
2021/03/03 05:20:50;;;;;;;16.33;10.13;;;5.80;93.20;;;;;;5068657;28;20028;-88
2021/03/03 05:23:26;;;;;;;17.17;10.32;;;5.70;93.20;;;;;;5063713;28;20185;-89
2021/03/03 05:25:51;;;;;;;13.93;8.70;;;5.70;93.20;;;;;;5062763;28;20027;-88
2021/03/03 05:28:17;;;;;;;14.52;8.75;;;5.70;93.30;;;;;;5066338;28;20524;-90
2021/03/03 05:30:42;;;;;;;16.40;9.25;;;5.70;93.30;;;;;;5066572;28;20021;-88
2021/03/03 05:33:08;;;;;;;14.27;8.80;;;5.60;93.30;;;;;;5057792;28;20021;-89
2021/03/03 05:35:33;;;;;;;14.52;9.07;;;5.60;93.40;;;;;;5068765;28;20422;-89
2021/03/03 05:37:59;;;;;;;15.68;9.20;;;5.60;93.40;;;;;;5069033;28;20025;-89
2021/03/03 05:40:24;;;;;;;15.63;9.70;;;5.70;93.50;;;;;;5069035;28;20020;-88
2021/03/03 05:42:50;;;;;;;15.45;9.30;;;5.70;93.50;;;;;;5065847;28;20071;-89
2021/03/03 05:45:18;;;;;;;16.33;8.77;;;5.70;93.50;;;;;;5072283;28;20021;-88
2021/03/03 05:47:45;;;;;;;19.20;9.50;;;5.70;93.40;;;;;;5066079;28;20025;-89
2021/03/03 05:50:15;;;;;;;14.02;8.30;;;5.70;93.50;;;;;;5065216;28;20017;-90
2021/03/03 05:52:41;;;;;;;16.35;9.02;;;5.70;93.50;;;;;;5071692;28;20024;-90
2021/03/03 05:55:08;;;;;;;17.17;9.00;;;5.70;93.50;;;;;;5058330;28;20501;-89
2021/03/03 05:57:35;;;;;;;16.42;9.25;;;5.70;93.70;;;;;;5063645;28;20076;-89
2021/03/03 06:00:05;;;;;;;14.77;8.98;;;5.70;93.70;;;;;;5072560;28;20464;-88
2021/03/03 06:02:31;;;;;;;;;;;5.60;93.70;;;;;;5071896;28;20117;-89
2021/03/03 06:04:57;;;;;;;15.98;8.43;;;5.60;93.70;;;;;;5075509;28;19911;-89
2021/03/03 06:07:23;;;;;;;14.95;8.68;;;5.60;93.90;;;;;;5074302;28;20025;-89
2021/03/03 06:09:48;;;;;;;14.27;8.25;;;5.60;93.80;;;;;;5072748;28;20067;-89
2021/03/03 06:12:14;;;;;;;17.80;10.50;;;5.60;93.80;;;;;;5075308;28;20021;-89
2021/03/03 06:14:40;;;;;;;18.15;9.70;;;5.70;93.80;;;;;;5073744;28;20032;-89
2021/03/03 06:17:07;;;;;;;16.52;9.32;;;5.70;93.80;;;;;;5074123;28;20024;-90
2021/03/03 06:19:32;;;;;;;16.70;9.88;;;5.70;93.80;;;;;;5074289;28;20028;-88
2021/03/03 06:22:25;;;;;;;18.35;9.48;;;5.70;93.80;;;;;;5074189;28;20025;-89
2021/03/03 06:24:54;;;;;;;15.27;8.73;;;5.70;93.80;;;;;;5074028;28;20024;-89
2021/03/03 06:27:25;;;;;;;19.85;10.20;;;5.70;93.90;;;;;;5073380;28;20052;-89
2021/03/03 06:30:05;;;;;;;15.63;9.30;;;5.70;93.90;;;;;;5073713;28;20067;-89
2021/03/03 06:32:30;;;;;;;;;;;5.70;93.90;;;;;;5074199;28;20025;-90
2021/03/03 06:34:56;;;;;;;14.35;8.15;;;5.60;93.90;;;;;;5073932;28;19952;-89
2021/03/03 06:37:21;;;;;;;13.70;7.80;;;5.50;94.10;;;;;;5074594;28;20024;-88
2021/03/03 06:40:08;;;;;;;14.90;9.48;;;5.50;94.10;;;;;;5073509;28;20020;-88
2021/03/03 06:42:34;;;;;;;15.77;9.38;;;5.60;94.10;;;;;;5073909;28;20032;-88
2021/03/03 06:44:59;;;;;;;13.35;8.25;;;5.60;94.20;;;;;;5074734;28;20033;-88
2021/03/03 06:47:25;;;;;;;22.65;12.30;;;5.60;94.20;;;;;;5073508;28;20016;-89
2021/03/03 06:49:52;;;;;;;20.15;11.68;;;5.50;94.20;;;;;;5073883;28;20028;-89
2021/03/03 06:52:37;;;;;;;18.88;11.35;;;5.50;94.20;;;;;;5073798;28;20095;-90
2021/03/03 06:55:03;;;;;;;20.52;12.20;;;5.50;94.20;;;;;;5073601;28;20541;-89
2021/03/03 06:57:28;;;;;;;21.50;12.77;;;5.40;94.30;;;;;;5073384;28;20044;-89
2021/03/03 06:59:56;;;;;;;18.25;11.40;;;5.40;94.40;;;;;;5079873;28;20069;-89
2021/03/03 07:02:29;;;;;;;16.25;10.48;;;5.40;94.40;;;;;;5093657;28;20502;-89
2021/03/03 07:04:56;;;;;;;20.05;11.32;;;5.50;94.50;;;;;;5093729;28;20027;-89
2021/03/03 07:07:22;;;;;;;20.63;12.10;;;5.50;94.60;;;;;;5093698;28;20057;-90
2021/03/03 07:09:59;;;;;;;17.27;11.50;;;5.40;94.70;;;;;;5093684;28;20028;-89
2021/03/03 07:12:32;;;;;;;19.50;11.48;;;5.50;94.80;;;;;;5094932;28;20024;-90
2021/03/03 07:15:04;;;;;;;18.90;10.95;;;5.50;95.00;;;;;;5093382;28;20024;-89
2021/03/03 07:17:34;;;;;;;27.98;10.73;;;5.60;95.00;;;;;;5093468;28;20495;-89
2021/03/03 07:20:07;;;;;;;16.00;10.18;;;5.60;94.90;;;;;;5093498;28;20024;-89
2021/03/03 07:22:35;;;;;;;17.85;10.65;;;5.70;94.80;;;;;;5093481;28;20115;-89
2021/03/03 07:25:03;;;;;;;16.38;9.80;;;5.80;94.80;;;;;;5093247;28;20081;-88
2021/03/03 07:27:30;;;;;;;16.75;10.45;;;5.90;94.80;;;;;;5093759;28;20020;-88
2021/03/03 07:30:00;;;;;;;15.00;9.65;;;6.00;94.70;;;;;;5094139;28;20028;-87
2021/03/03 07:32:26;;;;;;;16.77;10.18;;;6.00;94.70;;;;;;5092527;28;20020;-88
2021/03/03 07:34:54;;;;;;;19.73;11.32;;;6.10;94.70;;;;;;5090908;28;20024;-88
2021/03/03 07:37:22;;;;;;;19.38;11.38;;;6.10;94.70;;;;;;5083951;28;20034;-87
2021/03/03 07:39:54;;;;;;;19.90;11.88;;;6.20;94.60;;;;;;5084607;28;20104;-88
2021/03/03 07:42:23;;;;;;;24.85;13.80;;;6.20;94.70;;;;;;5092631;28;20028;-87
2021/03/03 07:44:50;;;;;;;21.30;12.98;;;6.20;94.60;;;;;;5083705;28;20017;-88
2021/03/03 07:47:17;;;;;;;19.55;11.27;;;6.30;94.60;;;;;;5094445;28;20486;-90
2021/03/03 07:49:45;;;;;;;23.83;12.30;;;6.30;94.60;;;;;;5093182;28;20062;-89
2021/03/03 07:52:12;;;;;;;20.27;11.95;;;6.40;94.60;;;;;;5094200;28;20020;-88
2021/03/03 07:54:38;;;;;;;19.83;12.27;;;6.40;94.60;;;;;;5081549;28;20035;-88
2021/03/03 07:57:05;;;;;;;20.92;12.93;;;6.50;94.80;;;;;;5075039;28;20495;-88
2021/03/03 07:59:32;;;;;;;21.42;12.82;;;6.60;94.80;;;;;;5086545;28;20028;-88
2021/03/03 08:01:57;;;;;;;20.67;11.25;;;6.70;94.80;;;;;;5090656;28;20024;-89
2021/03/03 08:04:43;;;;;;;19.95;10.90;;;6.80;94.80;;;;;;5089504;28;20104;-87
2021/03/03 08:07:24;;;;;;;36.40;21.58;;;7.00;94.70;;;;;;5080167;28;20127;-87
2021/03/03 08:10:15;;;;;;;32.67;20.27;;;7.00;94.90;;;;;;5080957;28;20085;-88
2021/03/03 08:13:01;;;;;;;36.40;21.33;;;7.10;95.10;;;;;;5077837;28;20058;-87
2021/03/03 08:15:33;;;;;;;31.10;19.48;;;7.10;95.20;;;;;;5080887;28;20108;-88
2021/03/03 08:18:29;;;;;;;39.15;22.08;;;7.20;95.30;;;;;;5082556;28;20065;-88
2021/03/03 08:21:18;;;;;;;34.58;22.67;;;7.30;95.20;;;;;;5085847;28;20024;-87
2021/03/03 08:23:57;;;;;;;38.28;21.75;;;7.40;95.20;;;;;;5052158;28;20085;-88
2021/03/03 08:26:22;;;;;;;36.25;22.08;;;7.40;95.40;;;;;;5082955;28;20110;-88
2021/03/03 08:29:13;;;;;;;43.20;24.23;;;7.50;95.50;;;;;;5084552;28;20059;-89
2021/03/03 08:31:40;;;;;;;39.15;25.02;;;7.50;95.60;;;;;;5077939;28;20028;-88
2021/03/03 08:34:07;;;;;;;43.30;26.38;;;7.60;95.80;;;;;;5081562;28;20028;-87
2021/03/03 08:36:34;;;;;;;41.28;25.27;;;7.60;95.90;;;;;;5080788;28;20062;-88
2021/03/03 08:38:59;;;;;;;43.85;27.38;;;7.70;96.20;;;;;;5075667;28;20475;-88
2021/03/03 08:41:25;;;;;;;46.35;27.85;;;7.70;96.40;;;;;;5081790;28;20086;-88
2021/03/03 08:44:11;;;;;;;44.05;26.83;;;7.80;96.60;;;;;;5081116;28;20020;-88
2021/03/03 08:46:42;;;;;;;42.55;27.50;;;7.90;96.50;;;;;;5083781;28;20031;-88
2021/03/03 08:49:08;;;;;;;51.33;30.35;;;7.90;96.70;;;;;;5083225;28;20024;-88
2021/03/03 08:51:35;;;;;;;43.67;27.20;;;7.90;97.00;;;;;;5084378;28;20078;-88
2021/03/03 08:54:03;;;;;;;51.13;31.13;;;7.90;97.10;;;;;;5080944;28;20017;-88
2021/03/03 08:56:37;;;;;;;43.33;27.98;;;8.00;97.30;;;;;;5087169;28;20179;-88
2021/03/03 08:59:13;;;;;;;37.65;25.38;;;8.10;97.30;;;;;;5096523;28;20039;-88
2021/03/03 09:01:52;;;;;;;54.85;31.30;;;8.20;97.20;;;;;;5084080;28;20390;-88
2021/03/03 09:04:23;;;;;;;49.03;31.20;;;8.30;97.10;;;;;;5083590;28;20552;-90
2021/03/03 09:06:55;;;;;;;49.50;30.42;;;8.40;97.40;;;;;;5076495;28;20060;-89
2021/03/03 09:09:21;;;;;;;54.15;31.13;;;8.40;97.20;;;;;;5075157;28;20028;-88
2021/03/03 09:11:47;;;;;;;52.72;31.13;;;8.50;97.30;;;;;;5075108;28;20116;-88
2021/03/03 09:14:13;;;;;;;46.15;29.55;;;8.60;97.30;;;;;;5078868;28;20052;-89
2021/03/03 09:16:59;;;;;;;50.35;31.90;;;8.70;97.20;;;;;;5074910;28;20070;-88
2021/03/03 09:19:26;;;;;;;46.50;29.20;;;8.90;97.10;;;;;;5075194;28;20434;-88
2021/03/03 09:21:52;;;;;;;47.53;29.88;;;9.00;97.10;;;;;;5075063;28;20543;-88
2021/03/03 09:24:17;;;;;;;50.58;32.78;;;9.10;97.20;;;;;;5076087;28;20063;-88
2021/03/03 09:26:44;;;;;;;48.63;31.63;;;9.10;97.00;;;;;;5074612;28;20100;-88
2021/03/03 09:29:33;;;;;;;53.15;32.63;;;9.10;97.10;;;;;;5074990;28;20433;-88
2021/03/03 09:32:05;;;;;;;47.28;30.83;;;9.10;97.20;;;;;;5074817;28;20021;-89
2021/03/03 09:34:32;;;;;;;42.40;28.30;;;9.00;97.60;;;;;;5074780;28;20052;-88
2021/03/03 09:37:00;;;;;;;48.85;31.75;;;9.10;97.70;;;;;;5074797;28;20103;-89
2021/03/03 09:39:27;;;;;;;48.28;31.90;;;9.20;97.70;;;;;;5075928;28;20535;-90
2021/03/03 09:41:54;;;;;;;51.22;31.75;;;9.20;97.60;;;;;;5075368;28;20033;-87
2021/03/03 09:44:19;;;;;;;57.17;34.25;;;9.30;97.60;;;;;;5075879;28;20025;-89
2021/03/03 09:46:57;;;;;;;50.83;33.85;;;9.40;97.70;;;;;;5074934;28;20031;-90
2021/03/03 09:49:29;;;;;;;51.63;33.92;;;9.30;97.70;;;;;;5074968;28;20108;-89
2021/03/03 09:51:55;;;;;;;50.83;33.58;;;9.30;97.90;;;;;;5076645;28;20154;-88
2021/03/03 09:54:26;;;;;;;46.85;31.20;;;9.40;98.00;;;;;;5078922;28;20024;-89
2021/03/03 09:56:51;;;;;;;51.92;34.65;;;9.60;97.90;;;;;;5080022;28;20028;-88
2021/03/03 09:59:18;;;;;;;44.25;30.35;;;9.60;97.80;;;;;;5079168;28;20055;-90
2021/03/03 10:01:44;;;;;;;39.97;26.50;;;9.60;97.70;;;;;;5075804;28;20098;-91
2021/03/03 10:04:10;;;;;;;47.60;31.10;;;9.80;97.70;;;;;;5075090;28;20441;-90
2021/03/03 10:06:36;;;;;;;50.67;32.25;;;9.80;97.50;;;;;;5074753;28;20039;-90
2021/03/03 10:09:02;;;;;;;46.58;31.38;;;9.90;97.50;;;;;;5074604;28;20541;-89
2021/03/03 10:11:28;;;;;;;42.17;28.00;;;10.00;97.40;;;;;;5074440;28;20024;-89
2021/03/03 10:14:08;;;;;;;48.17;31.30;;;10.10;97.30;;;;;;5075768;28;20021;-89
2021/03/03 10:16:34;;;;;;;47.33;32.00;;;10.20;97.10;;;;;;5074612;28;20021;-90
2021/03/03 10:19:08;;;;;;;39.58;27.27;;;10.40;97.10;;;;;;5074446;28;20028;-89
2021/03/03 10:21:44;;;;;;;48.22;32.15;;;10.60;96.90;;;;;;5074071;28;20085;-89
2021/03/03 10:24:18;;;;;;;47.83;31.50;;;10.80;96.50;;;;;;5074135;28;20094;-90
2021/03/03 10:26:46;;;;;;;51.00;33.78;;;10.90;96.30;;;;;;5074185;28;20032;-90
2021/03/03 10:29:13;;;;;;;48.10;32.30;;;11.00;95.90;;;;;;5074210;28;20025;-90
2021/03/03 10:31:39;;;;;;;42.80;30.85;;;11.20;95.90;;;;;;5073955;28;20093;-89
2021/03/03 10:34:09;;;;;;;47.08;30.38;;;11.50;96.00;;;;;;5074195;28;20036;-90
2021/03/03 10:36:40;;;;;;;37.55;26.95;;;12.00;95.40;;;;;;5075284;28;20020;-90
2021/03/03 10:39:06;;;;;;;39.67;27.35;;;12.50;94.90;;;;;;5073728;28;20115;-90
2021/03/03 10:41:34;;;;;;;39.45;26.17;;;12.80;94.30;;;;;;5073633;28;20063;-89
2021/03/03 10:44:02;;;;;;;44.88;31.70;;;13.30;93.80;;;;;;5090624;28;20024;-89
2021/03/03 10:46:28;;;;;;;45.42;31.92;;;13.50;92.10;;;;;;5074843;28;20024;-90
2021/03/03 10:48:56;;;;;;;41.70;30.05;;;13.50;91.70;;;;;;5073381;28;20024;-89
2021/03/03 10:51:36;;;;;;;44.80;30.58;;;13.60;91.60;;;;;;5074636;28;20076;-89
2021/03/03 10:54:02;;;;;;;40.53;29.23;;;14.00;90.90;;;;;;5073212;28;20021;-88
2021/03/03 10:56:28;;;;;;;39.97;27.67;;;14.20;90.50;;;;;;5074224;28;20051;-89
2021/03/03 10:58:57;;;;;;;38.75;27.55;;;14.40;90.10;;;;;;5073378;28;20032;-88
2021/03/03 11:01:38;;;;;;;43.53;30.08;;;14.60;90.00;;;;;;5073494;28;20056;-87
2021/03/03 11:04:04;;;;;;;42.30;30.10;;;14.60;89.00;;;;;;5072903;28;20025;-90
2021/03/03 11:06:33;;;;;;;37.30;26.30;;;14.50;88.90;;;;;;5073888;28;20032;-89
2021/03/03 11:08:58;;;;;;;37.53;26.30;;;14.40;89.20;;;;;;5073071;28;20504;-88
2021/03/03 11:11:24;;;;;;;40.72;28.08;;;14.40;89.40;;;;;;5072872;28;20091;-89
2021/03/03 11:13:49;;;;;;;39.88;27.60;;;14.50;89.10;;;;;;5075079;28;20028;-88
2021/03/03 11:16:15;;;;;;;41.13;27.65;;;14.80;88.70;;;;;;5077383;28;20356;-88
2021/03/03 11:18:41;;;;;;;38.70;29.02;;;15.20;88.20;;;;;;5076495;28;20044;-88
2021/03/03 11:21:08;;;;;;;39.28;28.98;;;15.40;85.60;;;;;;5076973;28;20029;-90
2021/03/03 11:23:33;;;;;;;42.15;27.55;;;15.70;85.20;;;;;;5077579;28;20024;-88
2021/03/03 11:26:00;;;;;;;42.53;30.20;;;15.90;84.40;;;;;;5079901;28;20082;-88
2021/03/03 11:28:26;;;;;;;38.50;27.85;;;16.00;82.70;;;;;;5086059;28;20024;-88
2021/03/03 11:30:52;;;;;;;38.95;28.20;;;15.90;82.70;;;;;;5081095;28;20024;-87
2021/03/03 11:33:18;;;;;;;43.80;30.27;;;15.70;82.80;;;;;;5073949;28;20103;-89
2021/03/03 11:35:43;;;;;;;37.90;27.75;;;15.50;83.30;;;;;;5072702;28;20388;-89
2021/03/03 11:38:09;;;;;;;40.75;29.83;;;15.80;83.70;;;;;;5072631;28;20177;-90
2021/03/03 11:40:35;;;;;;;44.40;32.22;;;16.10;82.70;;;;;;5072760;28;20025;-89
2021/03/03 11:43:01;;;;;;;39.78;28.83;;;16.20;81.70;;;;;;5086942;28;20032;-89
2021/03/03 11:45:26;;;;;;;39.53;29.02;;;16.30;82.20;;;;;;5092599;28;20060;-89
2021/03/03 11:47:52;;;;;;;52.88;39.80;;;16.70;81.20;;;;;;5086222;28;20024;-87
2021/03/03 11:50:18;;;;;;;53.35;39.80;;;16.60;76.00;;;;;;5077211;28;20503;-87
2021/03/03 11:52:43;;;;;;;50.08;36.08;;;16.00;75.00;;;;;;5071614;28;20070;-87
2021/03/03 11:55:09;;;;;;;48.67;36.10;;;15.50;77.10;;;;;;5071513;28;20479;-87
2021/03/03 11:57:36;;;;;;;58.20;41.70;;;15.30;78.30;;;;;;5071696;28;20051;-87
2021/03/03 12:00:05;;;;;;;50.30;35.35;;;15.30;78.00;;;;;;5071752;28;20056;-87
2021/03/03 12:02:31;;;;;;;54.78;37.20;;;15.70;79.00;;;;;;5071614;28;20056;-87
2021/03/03 12:04:56;;;;;;;50.42;35.63;;;16.20;76.80;;;;;;5077038;28;20052;-86
2021/03/03 12:07:22;;;;;;;49.33;36.60;;;16.20;76.40;;;;;;5086021;28;20025;-87
2021/03/03 12:09:47;;;;;;;56.80;38.67;;;16.30;76.70;;;;;;5092398;28;20039;-87
2021/03/03 12:12:13;;;;;;;51.95;36.72;;;16.30;76.20;;;;;;5089836;28;20020;-87
2021/03/03 12:14:40;;;;;;;50.83;38.75;;;16.20;76.20;;;;;;5082548;28;20055;-87
2021/03/03 12:17:06;;;;;;;54.13;39.60;;;16.30;75.80;;;;;;5080321;28;20021;-87
2021/03/03 12:19:31;;;;;;;52.60;36.88;;;16.30;75.50;;;;;;5084941;28;20019;-87
2021/03/03 12:21:57;;;;;;;51.97;38.05;;;16.70;75.60;;;;;;5082451;28;20495;-88
2021/03/03 12:24:23;;;;;;;56.28;39.30;;;17.10;74.50;;;;;;5074480;28;20490;-88
2021/03/03 12:26:49;;;;;;;54.20;39.00;;;17.20;73.40;;;;;;5083523;28;20513;-87
2021/03/03 12:29:14;;;;;;;49.90;35.28;;;17.30;73.50;;;;;;5089569;28;20039;-87
2021/03/03 12:31:40;;;;;;;60.72;45.53;;;17.40;73.20;;;;;;5080055;28;20442;-87
2021/03/03 12:34:05;;;;;;;56.45;39.53;;;17.50;71.60;;;;;;5083258;28;20435;-87
2021/03/03 12:36:31;;;;;;;52.17;40.53;;;17.30;70.70;;;;;;5084794;28;20468;-88
2021/03/03 12:38:57;;;;;;;59.13;43.13;;;17.00;71.60;;;;;;5086295;28;20036;-86
2021/03/03 12:41:22;;;;;;;57.03;41.63;;;17.00;71.80;;;;;;5086359;28;20549;-86
2021/03/03 12:43:48;;;;;;;57.08;41.70;;;16.90;71.60;;;;;;5086023;28;20020;-86